sensor_id;sensor_type;location;lat;lon;timestamp;temperature;humidity
32753;DHT22;19121;52.428;10.816;2023-05-16T00:01:58;22.00;44.30
32753;DHT22;19121;52.428;10.816;2023-05-16T00:04:23;22.00;44.30
32753;DHT22;19121;52.428;10.816;2023-05-16T00:06:50;22.00;44.30
32753;DHT22;19121;52.428;10.816;2023-05-16T00:09:15;22.00;44.30
32753;DHT22;19121;52.428;10.816;2023-05-16T00:11:41;22.00;44.30
32753;DHT22;19121;52.428;10.816;2023-05-16T00:14:07;22.00;44.30
32753;DHT22;19121;52.428;10.816;2023-05-16T00:16:32;22.00;44.40
32753;DHT22;19121;52.428;10.816;2023-05-16T00:18:57;21.90;44.30
32753;DHT22;19121;52.428;10.816;2023-05-16T00:21:24;21.90;44.30
32753;DHT22;19121;52.428;10.816;2023-05-16T00:23:49;21.90;44.30
32753;DHT22;19121;52.428;10.816;2023-05-16T00:26:17;21.90;44.30
32753;DHT22;19121;52.428;10.816;2023-05-16T00:28:42;21.90;44.40
32753;DHT22;19121;52.428;10.816;2023-05-16T00:31:08;21.90;44.30
32753;DHT22;19121;52.428;10.816;2023-05-16T00:33:33;21.90;44.40
32753;DHT22;19121;52.428;10.816;2023-05-16T00:35:59;21.90;44.40
32753;DHT22;19121;52.428;10.816;2023-05-16T00:38:24;21.90;44.40
32753;DHT22;19121;52.428;10.816;2023-05-16T00:40:50;21.90;44.40
32753;DHT22;19121;52.428;10.816;2023-05-16T00:43:15;21.90;44.40
32753;DHT22;19121;52.428;10.816;2023-05-16T00:45:41;21.90;44.40
32753;DHT22;19121;52.428;10.816;2023-05-16T00:48:07;21.90;44.40
32753;DHT22;19121;52.428;10.816;2023-05-16T00:50:33;21.90;44.40
32753;DHT22;19121;52.428;10.816;2023-05-16T00:52:59;21.90;44.40
32753;DHT22;19121;52.428;10.816;2023-05-16T00:55:24;21.80;44.30
32753;DHT22;19121;52.428;10.816;2023-05-16T00:57:51;21.90;44.40
32753;DHT22;19121;52.428;10.816;2023-05-16T01:00:16;21.80;44.40
32753;DHT22;19121;52.428;10.816;2023-05-16T01:02:44;21.90;44.40
32753;DHT22;19121;52.428;10.816;2023-05-16T01:05:10;21.80;44.30
32753;DHT22;19121;52.428;10.816;2023-05-16T01:07:35;21.80;44.40
32753;DHT22;19121;52.428;10.816;2023-05-16T01:10:02;21.80;44.40
32753;DHT22;19121;52.428;10.816;2023-05-16T01:27:38;21.80;44.40
32753;DHT22;19121;52.428;10.816;2023-05-16T01:30:15;21.80;44.40
32753;DHT22;19121;52.428;10.816;2023-05-16T01:32:41;21.80;44.40
32753;DHT22;19121;52.428;10.816;2023-05-16T01:35:07;21.80;44.40
32753;DHT22;19121;52.428;10.816;2023-05-16T01:37:35;21.80;44.40
32753;DHT22;19121;52.428;10.816;2023-05-16T01:40:03;21.80;44.40
32753;DHT22;19121;52.428;10.816;2023-05-16T01:42:34;21.70;44.30
32753;DHT22;19121;52.428;10.816;2023-05-16T01:45:14;21.80;44.40
32753;DHT22;19121;52.428;10.816;2023-05-16T01:47:44;21.70;44.30
32753;DHT22;19121;52.428;10.816;2023-05-16T01:50:17;21.70;44.30
32753;DHT22;19121;52.428;10.816;2023-05-16T01:55:13;21.70;44.40
32753;DHT22;19121;52.428;10.816;2023-05-16T01:57:40;21.70;44.40
32753;DHT22;19121;52.428;10.816;2023-05-16T02:00:06;21.70;44.30
32753;DHT22;19121;52.428;10.816;2023-05-16T02:02:32;21.70;44.40
32753;DHT22;19121;52.428;10.816;2023-05-16T02:04:58;21.70;44.40
32753;DHT22;19121;52.428;10.816;2023-05-16T02:07:23;21.70;44.40
32753;DHT22;19121;52.428;10.816;2023-05-16T02:09:49;21.70;44.40
32753;DHT22;19121;52.428;10.816;2023-05-16T02:12:15;21.70;44.40
32753;DHT22;19121;52.428;10.816;2023-05-16T02:14:40;21.60;44.30
32753;DHT22;19121;52.428;10.816;2023-05-16T02:17:05;21.70;44.40
32753;DHT22;19121;52.428;10.816;2023-05-16T02:19:31;21.70;45.00
32753;DHT22;19121;52.428;10.816;2023-05-16T02:21:56;21.70;44.50
32753;DHT22;19121;52.428;10.816;2023-05-16T02:24:22;21.70;44.50
32753;DHT22;19121;52.428;10.816;2023-05-16T02:26:47;21.70;44.40
32753;DHT22;19121;52.428;10.816;2023-05-16T02:29:13;21.70;44.40
32753;DHT22;19121;52.428;10.816;2023-05-16T02:31:39;21.70;44.40
32753;DHT22;19121;52.428;10.816;2023-05-16T02:34:05;21.70;44.50
32753;DHT22;19121;52.428;10.816;2023-05-16T02:36:31;21.70;44.40
32753;DHT22;19121;52.428;10.816;2023-05-16T02:38:58;21.70;44.50
32753;DHT22;19121;52.428;10.816;2023-05-16T02:41:24;21.70;44.40
32753;DHT22;19121;52.428;10.816;2023-05-16T02:43:50;21.70;44.40
32753;DHT22;19121;52.428;10.816;2023-05-16T02:46:19;21.70;44.40
32753;DHT22;19121;52.428;10.816;2023-05-16T02:48:44;21.70;44.30
32753;DHT22;19121;52.428;10.816;2023-05-16T02:51:09;21.70;44.20
32753;DHT22;19121;52.428;10.816;2023-05-16T02:53:35;21.70;44.20
32753;DHT22;19121;52.428;10.816;2023-05-16T02:56:00;21.70;44.20
32753;DHT22;19121;52.428;10.816;2023-05-16T02:58:26;21.70;44.20
32753;DHT22;19121;52.428;10.816;2023-05-16T03:00:51;21.70;44.20
32753;DHT22;19121;52.428;10.816;2023-05-16T03:03:17;21.70;44.20
32753;DHT22;19121;52.428;10.816;2023-05-16T03:05:42;21.70;44.20
32753;DHT22;19121;52.428;10.816;2023-05-16T03:08:08;21.70;44.20
32753;DHT22;19121;52.428;10.816;2023-05-16T03:10:33;21.70;44.20
32753;DHT22;19121;52.428;10.816;2023-05-16T03:12:59;21.70;44.10
32753;DHT22;19121;52.428;10.816;2023-05-16T03:15:24;21.70;44.20
32753;DHT22;19121;52.428;10.816;2023-05-16T03:17:50;21.70;44.20
32753;DHT22;19121;52.428;10.816;2023-05-16T03:20:16;21.70;44.20
32753;DHT22;19121;52.428;10.816;2023-05-16T03:22:42;21.70;44.10
32753;DHT22;19121;52.428;10.816;2023-05-16T03:25:09;21.60;44.10
32753;DHT22;19121;52.428;10.816;2023-05-16T03:27:34;21.70;44.20
32753;DHT22;19121;52.428;10.816;2023-05-16T03:30:00;21.60;44.10
32753;DHT22;19121;52.428;10.816;2023-05-16T03:32:25;21.60;44.10
32753;DHT22;19121;52.428;10.816;2023-05-16T03:34:51;21.60;44.10
32753;DHT22;19121;52.428;10.816;2023-05-16T03:37:16;21.60;44.10
32753;DHT22;19121;52.428;10.816;2023-05-16T03:39:42;21.60;44.10
32753;DHT22;19121;52.428;10.816;2023-05-16T03:42:07;21.60;44.20
32753;DHT22;19121;52.428;10.816;2023-05-16T03:44:33;21.60;44.20
32753;DHT22;19121;52.428;10.816;2023-05-16T03:46:58;21.60;44.20
32753;DHT22;19121;52.428;10.816;2023-05-16T03:49:24;21.60;44.20
32753;DHT22;19121;52.428;10.816;2023-05-16T03:51:51;21.60;44.20
32753;DHT22;19121;52.428;10.816;2023-05-16T03:54:16;21.60;44.20
32753;DHT22;19121;52.428;10.816;2023-05-16T03:56:42;21.60;44.20
32753;DHT22;19121;52.428;10.816;2023-05-16T03:59:07;21.60;44.20
32753;DHT22;19121;52.428;10.816;2023-05-16T04:01:33;21.60;44.20
32753;DHT22;19121;52.428;10.816;2023-05-16T04:03:58;21.60;44.20
32753;DHT22;19121;52.428;10.816;2023-05-16T04:06:24;21.50;44.20
32753;DHT22;19121;52.428;10.816;2023-05-16T04:08:50;21.60;44.20
32753;DHT22;19121;52.428;10.816;2023-05-16T04:11:15;21.50;44.20
32753;DHT22;19121;52.428;10.816;2023-05-16T04:13:40;21.50;44.20
32753;DHT22;19121;52.428;10.816;2023-05-16T04:16:06;21.60;44.20
32753;DHT22;19121;52.428;10.816;2023-05-16T04:18:32;21.60;44.20
32753;DHT22;19121;52.428;10.816;2023-05-16T04:20:57;21.50;44.20
32753;DHT22;19121;52.428;10.816;2023-05-16T04:23:22;21.50;44.20
32753;DHT22;19121;52.428;10.816;2023-05-16T04:25:48;21.60;44.20
32753;DHT22;19121;52.428;10.816;2023-05-16T04:28:14;21.50;44.20
32753;DHT22;19121;52.428;10.816;2023-05-16T04:30:40;21.50;44.20
32753;DHT22;19121;52.428;10.816;2023-05-16T04:33:06;21.50;44.20
32753;DHT22;19121;52.428;10.816;2023-05-16T04:35:31;21.50;44.20
32753;DHT22;19121;52.428;10.816;2023-05-16T04:37:57;21.50;44.20
32753;DHT22;19121;52.428;10.816;2023-05-16T04:40:23;21.50;44.20
32753;DHT22;19121;52.428;10.816;2023-05-16T04:42:49;21.50;44.20
32753;DHT22;19121;52.428;10.816;2023-05-16T04:45:15;21.50;44.20
32753;DHT22;19121;52.428;10.816;2023-05-16T04:47:40;21.50;44.20
32753;DHT22;19121;52.428;10.816;2023-05-16T04:50:06;21.50;44.20
32753;DHT22;19121;52.428;10.816;2023-05-16T04:52:33;21.50;44.20
32753;DHT22;19121;52.428;10.816;2023-05-16T04:54:59;21.50;44.20
32753;DHT22;19121;52.428;10.816;2023-05-16T04:57:24;21.50;44.20
32753;DHT22;19121;52.428;10.816;2023-05-16T04:59:50;21.50;44.20
32753;DHT22;19121;52.428;10.816;2023-05-16T05:02:15;21.50;44.20
32753;DHT22;19121;52.428;10.816;2023-05-16T05:04:41;21.50;44.20
32753;DHT22;19121;52.428;10.816;2023-05-16T05:07:07;21.50;44.20
32753;DHT22;19121;52.428;10.816;2023-05-16T05:09:32;21.50;44.20
32753;DHT22;19121;52.428;10.816;2023-05-16T05:11:57;21.50;44.20
32753;DHT22;19121;52.428;10.816;2023-05-16T05:14:23;21.50;44.20
32753;DHT22;19121;52.428;10.816;2023-05-16T05:16:48;21.50;44.20
32753;DHT22;19121;52.428;10.816;2023-05-16T05:19:14;21.50;44.20
32753;DHT22;19121;52.428;10.816;2023-05-16T05:21:40;21.50;44.20
32753;DHT22;19121;52.428;10.816;2023-05-16T05:24:05;21.50;44.20
32753;DHT22;19121;52.428;10.816;2023-05-16T05:26:30;21.50;44.30
32753;DHT22;19121;52.428;10.816;2023-05-16T05:28:56;21.50;44.20
32753;DHT22;19121;52.428;10.816;2023-05-16T05:31:21;21.50;44.30
32753;DHT22;19121;52.428;10.816;2023-05-16T05:33:47;21.50;44.30
32753;DHT22;19121;52.428;10.816;2023-05-16T05:36:12;21.50;44.30
32753;DHT22;19121;52.428;10.816;2023-05-16T05:38:38;21.50;44.30
32753;DHT22;19121;52.428;10.816;2023-05-16T05:41:04;21.50;44.30
32753;DHT22;19121;52.428;10.816;2023-05-16T05:43:29;21.50;44.30
32753;DHT22;19121;52.428;10.816;2023-05-16T05:45:55;21.50;44.20
32753;DHT22;19121;52.428;10.816;2023-05-16T05:48:20;21.50;44.30
32753;DHT22;19121;52.428;10.816;2023-05-16T05:50:46;21.50;44.20
32753;DHT22;19121;52.428;10.816;2023-05-16T05:53:11;21.50;44.20
32753;DHT22;19121;52.428;10.816;2023-05-16T05:55:36;21.50;44.30
32753;DHT22;19121;52.428;10.816;2023-05-16T05:58:02;21.40;44.20
32753;DHT22;19121;52.428;10.816;2023-05-16T06:00:27;21.40;44.10
32753;DHT22;19121;52.428;10.816;2023-05-16T06:02:53;21.40;44.10
32753;DHT22;19121;52.428;10.816;2023-05-16T06:05:19;21.40;44.10
32753;DHT22;19121;52.428;10.816;2023-05-16T06:07:44;21.40;44.00
32753;DHT22;19121;52.428;10.816;2023-05-16T06:10:10;21.40;43.90
32753;DHT22;19121;52.428;10.816;2023-05-16T06:12:35;21.40;43.80
32753;DHT22;19121;52.428;10.816;2023-05-16T06:15:01;21.40;43.80
32753;DHT22;19121;52.428;10.816;2023-05-16T06:17:26;21.40;43.70
32753;DHT22;19121;52.428;10.816;2023-05-16T06:19:51;21.40;43.60
32753;DHT22;19121;52.428;10.816;2023-05-16T06:22:17;21.40;43.60
32753;DHT22;19121;52.428;10.816;2023-05-16T06:24:42;21.30;43.50
32753;DHT22;19121;52.428;10.816;2023-05-16T06:27:08;21.30;43.40
32753;DHT22;19121;52.428;10.816;2023-05-16T06:29:33;21.40;43.40
32753;DHT22;19121;52.428;10.816;2023-05-16T06:31:59;21.30;43.50
32753;DHT22;19121;52.428;10.816;2023-05-16T06:34:24;21.40;43.60
32753;DHT22;19121;52.428;10.816;2023-05-16T06:36:52;21.30;43.50
32753;DHT22;19121;52.428;10.816;2023-05-16T06:39:18;21.30;43.40
32753;DHT22;19121;52.428;10.816;2023-05-16T06:41:43;21.30;43.00
32753;DHT22;19121;52.428;10.816;2023-05-16T06:44:09;21.20;42.80
32753;DHT22;19121;52.428;10.816;2023-05-16T06:46:35;21.20;42.60
32753;DHT22;19121;52.428;10.816;2023-05-16T06:49:01;21.20;42.50
32753;DHT22;19121;52.428;10.816;2023-05-16T06:51:27;21.20;42.30
32753;DHT22;19121;52.428;10.816;2023-05-16T06:53:52;21.10;42.30
32753;DHT22;19121;52.428;10.816;2023-05-16T06:56:17;21.10;42.20
32753;DHT22;19121;52.428;10.816;2023-05-16T06:58:43;21.10;43.00
32753;DHT22;19121;52.428;10.816;2023-05-16T07:01:08;21.20;43.20
32753;DHT22;19121;52.428;10.816;2023-05-16T07:03:34;21.20;43.10
32753;DHT22;19121;52.428;10.816;2023-05-16T07:05:59;21.20;43.10
32753;DHT22;19121;52.428;10.816;2023-05-16T07:08:25;21.20;43.10
32753;DHT22;19121;52.428;10.816;2023-05-16T07:10:50;21.30;43.10
32753;DHT22;19121;52.428;10.816;2023-05-16T07:13:16;21.30;43.20
32753;DHT22;19121;52.428;10.816;2023-05-16T07:15:41;21.40;43.30
32753;DHT22;19121;52.428;10.816;2023-05-16T07:18:07;21.30;43.20
32753;DHT22;19121;52.428;10.816;2023-05-16T07:20:32;21.40;43.30
32753;DHT22;19121;52.428;10.816;2023-05-16T07:22:58;21.40;43.40
32753;DHT22;19121;52.428;10.816;2023-05-16T07:25:24;21.40;43.40
32753;DHT22;19121;52.428;10.816;2023-05-16T07:27:49;21.50;44.10
32753;DHT22;19121;52.428;10.816;2023-05-16T07:30:15;21.50;43.50
32753;DHT22;19121;52.428;10.816;2023-05-16T07:32:40;21.50;43.50
32753;DHT22;19121;52.428;10.816;2023-05-16T07:35:07;21.50;43.50
32753;DHT22;19121;52.428;10.816;2023-05-16T07:37:33;21.60;43.50
32753;DHT22;19121;52.428;10.816;2023-05-16T07:39:59;21.60;43.40
32753;DHT22;19121;52.428;10.816;2023-05-16T07:42:24;21.60;43.30
32753;DHT22;19121;52.428;10.816;2023-05-16T07:44:50;21.70;43.30
32753;DHT22;19121;52.428;10.816;2023-05-16T07:47:15;21.70;43.20
32753;DHT22;19121;52.428;10.816;2023-05-16T07:49:41;21.70;43.10
32753;DHT22;19121;52.428;10.816;2023-05-16T07:52:06;21.80;43.10
32753;DHT22;19121;52.428;10.816;2023-05-16T07:54:33;21.80;43.10
32753;DHT22;19121;52.428;10.816;2023-05-16T07:56:58;21.80;43.00
32753;DHT22;19121;52.428;10.816;2023-05-16T07:59:24;21.80;43.00
32753;DHT22;19121;52.428;10.816;2023-05-16T08:01:50;21.80;43.00
32753;DHT22;19121;52.428;10.816;2023-05-16T08:04:15;21.90;43.00
32753;DHT22;19121;52.428;10.816;2023-05-16T08:06:41;21.90;43.10
32753;DHT22;19121;52.428;10.816;2023-05-16T08:09:06;21.90;43.00
32753;DHT22;19121;52.428;10.816;2023-05-16T08:11:33;21.90;43.00
32753;DHT22;19121;52.428;10.816;2023-05-16T08:13:59;22.00;43.00
32753;DHT22;19121;52.428;10.816;2023-05-16T08:16:24;22.00;43.00
32753;DHT22;19121;52.428;10.816;2023-05-16T08:18:50;22.00;43.60
32753;DHT22;19121;52.428;10.816;2023-05-16T08:21:15;22.00;43.00
32753;DHT22;19121;52.428;10.816;2023-05-16T08:23:42;22.00;42.90
32753;DHT22;19121;52.428;10.816;2023-05-16T08:26:07;22.10;43.00
32753;DHT22;19121;52.428;10.816;2023-05-16T08:28:33;22.10;42.90
32753;DHT22;19121;52.428;10.816;2023-05-16T08:30:58;22.10;42.90
32753;DHT22;19121;52.428;10.816;2023-05-16T08:33:24;22.10;43.00
32753;DHT22;19121;52.428;10.816;2023-05-16T08:35:50;22.20;42.90
32753;DHT22;19121;52.428;10.816;2023-05-16T08:38:17;22.20;42.90
32753;DHT22;19121;52.428;10.816;2023-05-16T08:40:42;22.20;42.90
32753;DHT22;19121;52.428;10.816;2023-05-16T08:43:08;22.20;42.90
32753;DHT22;19121;52.428;10.816;2023-05-16T08:45:33;22.20;42.90
32753;DHT22;19121;52.428;10.816;2023-05-16T08:47:59;22.20;42.90
32753;DHT22;19121;52.428;10.816;2023-05-16T08:50:25;22.20;42.90
32753;DHT22;19121;52.428;10.816;2023-05-16T08:52:53;22.30;42.90
32753;DHT22;19121;52.428;10.816;2023-05-16T08:55:19;22.30;42.90
32753;DHT22;19121;52.428;10.816;2023-05-16T08:57:45;22.30;42.90
32753;DHT22;19121;52.428;10.816;2023-05-16T09:00:11;22.30;42.80
32753;DHT22;19121;52.428;10.816;2023-05-16T09:02:40;22.30;43.50
32753;DHT22;19121;52.428;10.816;2023-05-16T09:05:10;22.30;42.90
32753;DHT22;19121;52.428;10.816;2023-05-16T09:07:35;22.30;43.00
32753;DHT22;19121;52.428;10.816;2023-05-16T09:10:01;22.40;43.10
32753;DHT22;19121;52.428;10.816;2023-05-16T09:12:26;22.40;43.10
32753;DHT22;19121;52.428;10.816;2023-05-16T09:14:52;22.40;43.00
32753;DHT22;19121;52.428;10.816;2023-05-16T09:17:17;22.40;43.10
32753;DHT22;19121;52.428;10.816;2023-05-16T09:19:43;22.40;43.00
32753;DHT22;19121;52.428;10.816;2023-05-16T09:22:16;22.40;43.00
32753;DHT22;19121;52.428;10.816;2023-05-16T09:24:42;22.40;43.00
32753;DHT22;19121;52.428;10.816;2023-05-16T09:27:09;22.50;43.10
32753;DHT22;19121;52.428;10.816;2023-05-16T09:29:34;22.50;43.10
32753;DHT22;19121;52.428;10.816;2023-05-16T09:32:03;22.50;43.10
32753;DHT22;19121;52.428;10.816;2023-05-16T09:34:30;22.50;43.10
32753;DHT22;19121;52.428;10.816;2023-05-16T09:36:55;22.50;43.10
32753;DHT22;19121;52.428;10.816;2023-05-16T09:39:21;22.50;43.20
32753;DHT22;19121;52.428;10.816;2023-05-16T09:41:49;22.50;43.10
32753;DHT22;19121;52.428;10.816;2023-05-16T09:44:17;22.50;43.10
32753;DHT22;19121;52.428;10.816;2023-05-16T09:46:42;22.50;43.00
32753;DHT22;19121;52.428;10.816;2023-05-16T09:49:10;22.60;43.10
32753;DHT22;19121;52.428;10.816;2023-05-16T09:51:36;22.50;43.10
32753;DHT22;19121;52.428;10.816;2023-05-16T09:54:06;22.60;43.10
32753;DHT22;19121;52.428;10.816;2023-05-16T09:56:31;22.60;43.10
32753;DHT22;19121;52.428;10.816;2023-05-16T09:58:57;22.60;43.10
32753;DHT22;19121;52.428;10.816;2023-05-16T10:01:22;22.60;43.10
32753;DHT22;19121;52.428;10.816;2023-05-16T10:03:47;22.60;43.10
32753;DHT22;19121;52.428;10.816;2023-05-16T10:06:15;22.60;43.10
32753;DHT22;19121;52.428;10.816;2023-05-16T10:08:41;22.60;43.10
32753;DHT22;19121;52.428;10.816;2023-05-16T10:11:07;22.60;43.20
32753;DHT22;19121;52.428;10.816;2023-05-16T10:13:33;22.70;43.20
32753;DHT22;19121;52.428;10.816;2023-05-16T10:16:00;22.70;43.20
32753;DHT22;19121;52.428;10.816;2023-05-16T10:18:29;22.70;43.20
32753;DHT22;19121;52.428;10.816;2023-05-16T10:20:56;22.70;43.20
32753;DHT22;19121;52.428;10.816;2023-05-16T10:23:22;22.70;43.20
32753;DHT22;19121;52.428;10.816;2023-05-16T10:25:49;22.70;43.20
32753;DHT22;19121;52.428;10.816;2023-05-16T10:28:14;22.70;43.20
32753;DHT22;19121;52.428;10.816;2023-05-16T10:30:44;22.70;43.20
32753;DHT22;19121;52.428;10.816;2023-05-16T10:33:10;22.70;43.20
32753;DHT22;19121;52.428;10.816;2023-05-16T10:35:37;22.80;43.20
32753;DHT22;19121;52.428;10.816;2023-05-16T10:38:03;22.80;43.20
32753;DHT22;19121;52.428;10.816;2023-05-16T10:40:29;22.80;43.20
32753;DHT22;19121;52.428;10.816;2023-05-16T10:42:56;22.80;43.20
32753;DHT22;19121;52.428;10.816;2023-05-16T10:45:21;22.80;43.20
32753;DHT22;19121;52.428;10.816;2023-05-16T10:47:51;22.80;43.20
32753;DHT22;19121;52.428;10.816;2023-05-16T10:50:29;22.80;43.20
32753;DHT22;19121;52.428;10.816;2023-05-16T10:52:55;22.80;43.20
32753;DHT22;19121;52.428;10.816;2023-05-16T10:55:20;22.80;43.20
32753;DHT22;19121;52.428;10.816;2023-05-16T10:57:46;22.80;43.20
32753;DHT22;19121;52.428;10.816;2023-05-16T11:00:16;22.80;43.20
32753;DHT22;19121;52.428;10.816;2023-05-16T11:02:45;22.80;43.20
32753;DHT22;19121;52.428;10.816;2023-05-16T11:05:12;22.80;43.10
32753;DHT22;19121;52.428;10.816;2023-05-16T11:07:38;22.80;43.20
32753;DHT22;19121;52.428;10.816;2023-05-16T11:10:24;22.80;43.20
32753;DHT22;19121;52.428;10.816;2023-05-16T11:12:50;22.90;43.20
32753;DHT22;19121;52.428;10.816;2023-05-16T11:15:23;22.90;43.10
32753;DHT22;19121;52.428;10.816;2023-05-16T11:17:48;22.90;43.10
32753;DHT22;19121;52.428;10.816;2023-05-16T11:20:24;22.90;43.10
32753;DHT22;19121;52.428;10.816;2023-05-16T11:22:50;22.90;43.20
32753;DHT22;19121;52.428;10.816;2023-05-16T11:25:16;22.80;43.20
32753;DHT22;19121;52.428;10.816;2023-05-16T11:27:59;22.90;43.80
32753;DHT22;19121;52.428;10.816;2023-05-16T11:30:24;22.90;43.20
32753;DHT22;19121;52.428;10.816;2023-05-16T11:32:50;22.90;43.20
32753;DHT22;19121;52.428;10.816;2023-05-16T11:35:15;22.90;43.20
32753;DHT22;19121;52.428;10.816;2023-05-16T11:37:42;22.90;43.20
32753;DHT22;19121;52.428;10.816;2023-05-16T11:40:09;22.90;43.30
32753;DHT22;19121;52.428;10.816;2023-05-16T11:42:39;22.90;43.30
32753;DHT22;19121;52.428;10.816;2023-05-16T11:47:40;22.90;43.30
32753;DHT22;19121;52.428;10.816;2023-05-16T11:50:12;22.90;43.20
32753;DHT22;19121;52.428;10.816;2023-05-16T11:52:38;22.90;43.30
32753;DHT22;19121;52.428;10.816;2023-05-16T11:55:04;22.90;43.30
32753;DHT22;19121;52.428;10.816;2023-05-16T11:57:30;22.90;43.30
32753;DHT22;19121;52.428;10.816;2023-05-16T12:00:01;22.90;43.30
32753;DHT22;19121;52.428;10.816;2023-05-16T12:02:28;22.90;43.30
32753;DHT22;19121;52.428;10.816;2023-05-16T12:04:54;23.00;43.30
32753;DHT22;19121;52.428;10.816;2023-05-16T12:07:20;22.90;43.30
32753;DHT22;19121;52.428;10.816;2023-05-16T12:09:52;22.90;43.30
32753;DHT22;19121;52.428;10.816;2023-05-16T12:12:19;22.90;43.30
32753;DHT22;19121;52.428;10.816;2023-05-16T12:14:44;23.00;43.40
32753;DHT22;19121;52.428;10.816;2023-05-16T12:17:10;22.90;43.30
32753;DHT22;19121;52.428;10.816;2023-05-16T12:19:35;23.00;43.30
32753;DHT22;19121;52.428;10.816;2023-05-16T12:22:01;23.00;43.90
32753;DHT22;19121;52.428;10.816;2023-05-16T12:24:30;23.00;43.20
32753;DHT22;19121;52.428;10.816;2023-05-16T12:26:56;23.00;43.30
32753;DHT22;19121;52.428;10.816;2023-05-16T12:29:21;23.00;43.30
32753;DHT22;19121;52.428;10.816;2023-05-16T12:31:51;23.00;43.30
32753;DHT22;19121;52.428;10.816;2023-05-16T12:34:17;23.00;43.50
32753;DHT22;19121;52.428;10.816;2023-05-16T12:36:43;23.00;43.30
32753;DHT22;19121;52.428;10.816;2023-05-16T12:39:10;23.10;43.20
32753;DHT22;19121;52.428;10.816;2023-05-16T12:41:39;23.00;42.70
32753;DHT22;19121;52.428;10.816;2023-05-16T12:44:06;23.00;42.50
32753;DHT22;19121;52.428;10.816;2023-05-16T12:46:31;22.90;42.20
32753;DHT22;19121;52.428;10.816;2023-05-16T12:49:03;22.90;42.00
32753;DHT22;19121;52.428;10.816;2023-05-16T12:51:32;22.90;42.00
32753;DHT22;19121;52.428;10.816;2023-05-16T12:54:05;22.90;41.60
32753;DHT22;19121;52.428;10.816;2023-05-16T12:56:31;22.90;41.20
32753;DHT22;19121;52.428;10.816;2023-05-16T12:58:56;22.80;41.00
32753;DHT22;19121;52.428;10.816;2023-05-16T13:01:22;22.80;40.90
32753;DHT22;19121;52.428;10.816;2023-05-16T13:03:47;22.80;40.90
32753;DHT22;19121;52.428;10.816;2023-05-16T13:06:12;22.80;40.90
32753;DHT22;19121;52.428;10.816;2023-05-16T13:08:38;22.80;40.70
32753;DHT22;19121;52.428;10.816;2023-05-16T13:11:03;22.70;40.40
32753;DHT22;19121;52.428;10.816;2023-05-16T13:13:29;22.70;40.30
32753;DHT22;19121;52.428;10.816;2023-05-16T13:15:54;22.70;40.10
32753;DHT22;19121;52.428;10.816;2023-05-16T13:18:20;22.70;39.80
32753;DHT22;19121;52.428;10.816;2023-05-16T13:20:45;22.70;39.70
32753;DHT22;19121;52.428;10.816;2023-05-16T13:23:11;22.60;39.60
32753;DHT22;19121;52.428;10.816;2023-05-16T13:25:36;22.60;39.60
32753;DHT22;19121;52.428;10.816;2023-05-16T13:28:02;22.60;39.50
32753;DHT22;19121;52.428;10.816;2023-05-16T13:30:27;22.60;39.50
32753;DHT22;19121;52.428;10.816;2023-05-16T13:32:53;22.60;39.10
32753;DHT22;19121;52.428;10.816;2023-05-16T13:35:18;22.60;38.70
32753;DHT22;19121;52.428;10.816;2023-05-16T13:37:44;22.60;38.00
32753;DHT22;19121;52.428;10.816;2023-05-16T13:40:09;22.60;37.70
32753;DHT22;19121;52.428;10.816;2023-05-16T13:42:35;22.60;37.80
32753;DHT22;19121;52.428;10.816;2023-05-16T13:45:02;22.60;38.10
32753;DHT22;19121;52.428;10.816;2023-05-16T13:47:27;22.60;38.20
32753;DHT22;19121;52.428;10.816;2023-05-16T13:49:53;22.60;38.30
32753;DHT22;19121;52.428;10.816;2023-05-16T13:52:18;22.50;38.40
32753;DHT22;19121;52.428;10.816;2023-05-16T13:54:43;22.50;38.40
32753;DHT22;19121;52.428;10.816;2023-05-16T13:57:09;22.50;38.40
32753;DHT22;19121;52.428;10.816;2023-05-16T13:59:34;22.50;38.40
32753;DHT22;19121;52.428;10.816;2023-05-16T14:02:00;22.50;38.40
32753;DHT22;19121;52.428;10.816;2023-05-16T14:04:25;22.50;38.80
32753;DHT22;19121;52.428;10.816;2023-05-16T14:06:51;22.50;38.20
32753;DHT22;19121;52.428;10.816;2023-05-16T14:09:16;22.50;38.40
32753;DHT22;19121;52.428;10.816;2023-05-16T14:11:42;22.60;38.50
32753;DHT22;19121;52.428;10.816;2023-05-16T14:14:08;22.60;38.60
32753;DHT22;19121;52.428;10.816;2023-05-16T14:16:33;22.60;38.70
32753;DHT22;19121;52.428;10.816;2023-05-16T14:18:59;22.60;38.80
32753;DHT22;19121;52.428;10.816;2023-05-16T14:21:24;22.60;38.80
32753;DHT22;19121;52.428;10.816;2023-05-16T14:23:50;22.60;38.90
32753;DHT22;19121;52.428;10.816;2023-05-16T14:26:16;22.60;39.10
32753;DHT22;19121;52.428;10.816;2023-05-16T14:28:46;22.60;39.20
32753;DHT22;19121;52.428;10.816;2023-05-16T14:31:12;22.60;39.30
32753;DHT22;19121;52.428;10.816;2023-05-16T14:33:37;22.60;39.40
32753;DHT22;19121;52.428;10.816;2023-05-16T14:36:05;22.60;39.40
32753;DHT22;19121;52.428;10.816;2023-05-16T14:38:31;22.60;39.40
32753;DHT22;19121;52.428;10.816;2023-05-16T14:40:56;22.60;40.00
32753;DHT22;19121;52.428;10.816;2023-05-16T14:43:22;22.60;39.30
32753;DHT22;19121;52.428;10.816;2023-05-16T14:45:47;22.60;39.20
32753;DHT22;19121;52.428;10.816;2023-05-16T14:48:13;22.60;39.10
32753;DHT22;19121;52.428;10.816;2023-05-16T14:50:38;22.60;39.10
32753;DHT22;19121;52.428;10.816;2023-05-16T14:53:04;22.60;38.80
32753;DHT22;19121;52.428;10.816;2023-05-16T14:55:29;22.60;38.70
32753;DHT22;19121;52.428;10.816;2023-05-16T14:57:55;22.60;38.60
32753;DHT22;19121;52.428;10.816;2023-05-16T15:00:21;22.60;38.50
32753;DHT22;19121;52.428;10.816;2023-05-16T15:02:47;22.60;38.50
32753;DHT22;19121;52.428;10.816;2023-05-16T15:05:12;22.60;38.50
32753;DHT22;19121;52.428;10.816;2023-05-16T15:07:38;22.60;38.50
32753;DHT22;19121;52.428;10.816;2023-05-16T15:10:04;22.70;38.70
32753;DHT22;19121;52.428;10.816;2023-05-16T15:12:31;22.70;38.80
32753;DHT22;19121;52.428;10.816;2023-05-16T15:14:56;22.60;38.80
32753;DHT22;19121;52.428;10.816;2023-05-16T15:17:21;22.70;38.70
32753;DHT22;19121;52.428;10.816;2023-05-16T15:19:47;22.70;38.70
32753;DHT22;19121;52.428;10.816;2023-05-16T15:22:13;22.60;38.60
32753;DHT22;19121;52.428;10.816;2023-05-16T15:24:38;22.70;38.70
32753;DHT22;19121;52.428;10.816;2023-05-16T15:27:04;22.60;38.60
32753;DHT22;19121;52.428;10.816;2023-05-16T15:29:29;22.60;38.60